APL Illinois — 9HA2040 — position and weather

sailwx.info

Track history (hours):
 
Tides and Currents Weather Stations Pressure Air Temp Water Temp Dewpoint Dewpoint Depression Visibility Wind Speed Wind Dir Waves Ship Positions

APL Illinois

Last reported at 2017-Sep-19 17:12 UTC. Time now 2017-Sep-19 20:37 UTC.
Position N 31°56' W 080°26'.

Length 304 m; draft 10.8 m.

Type: Ship (hazmat cat C). MMSI: 249851000.

Date/timePositionNaut miles runAvg speedWind from/ knotsBaromVisibWave heightAir tempDewpointWater temp
2017-Sep-19 17:12N 31°56' W 080°26'413.5
2017-Sep-19 16:54N 31°56' W 080°30'814.1
2017-Sep-19 16:20N 31°57' W 080°40'412.4
2017-Sep-19 16:00N 31°58' W 080°44'815.8
2017-Sep-19 15:30N 32°02' W 080°52'612.6
2017-Sep-19 15:00N 32°05' W 080°59'4 8.5
2017-Sep-19 14:31N 32°05' W 081°04'3 5.3
2017-Sep-19 14:00N 32°06' W 081°07'2 3.4
2017-Sep-19 13:30N 32°07' W 081°08'0 0.0
2017-Sep-19 12:54N 32°07' W 081°08'0 0.0
2017-Sep-19 12:30N 32°07' W 081°08'0 0.0
2017-Sep-19 12:00N 32°07' W 081°08'0 0.0
2017-Sep-19 11:30N 32°07' W 081°08'0 0.0
2017-Sep-19 10:59N 32°07' W 081°08'0 0.0
2017-Sep-19 10:30N 32°07' W 081°08'0 0.0
2017-Sep-19 09:29N 32°07' W 081°08'0 0.0
2017-Sep-19 08:59N 32°07' W 081°08'0 0.0
2017-Sep-19 08:29N 32°07' W 081°08'0 0.0
2017-Sep-19 07:47N 32°07' W 081°08'0 0.1
2017-Sep-19 07:29N 32°07' W 081°08'0 0.0
2017-Sep-19 06:59N 32°07' W 081°08'0 0.0
2017-Sep-19 06:30N 32°07' W 081°08'0 0.0
2017-Sep-19 05:59N 32°07' W 081°08'0 0.0
2017-Sep-19 05:24N 32°07' W 081°08'0 0.0
2017-Sep-19 04:54N 32°07' W 081°08'0 0.0
2017-Sep-19 04:20N 32°07' W 081°08'0 0.0
2017-Sep-19 03:53N 32°07' W 081°08'0 0.0
2017-Sep-19 03:29N 32°07' W 081°08'0 0.0
2017-Sep-19 03:00N 32°07' W 081°08'0 0.0
2017-Sep-19 02:29N 32°07' W 081°08'0 0.0
2017-Sep-19 01:59N 32°07' W 081°08'0 0.0
2017-Sep-19 01:29N 32°07' W 081°08'0 0.0
2017-Sep-19 00:59N 32°07' W 081°08'0 0.0
2017-Sep-19 00:30N 32°07' W 081°08'0 0.0
2017-Sep-19 00:00N 32°07' W 081°08'0 0.0
2017-Sep-18 23:29N 32°07' W 081°08'0 0.0
2017-Sep-18 22:59N 32°07' W 081°08'0 0.0
2017-Sep-18 22:30N 32°07' W 081°08'0 0.0
2017-Sep-18 21:59N 32°07' W 081°08'0 0.0
2017-Sep-18 21:24N 32°07' W 081°08'0 0.0
2017-Sep-18 21:00N 32°07' W 081°08'0 0.0
2017-Sep-18 20:29N 32°07' W 081°08'0 0.0
2017-Sep-18 19:59N 32°07' W 081°08'0 0.0
2017-Sep-18 19:30N 32°07' W 081°08'0 0.0
2017-Sep-18 19:00N 32°07' W 081°08'0 0.0
2017-Sep-18 18:29N 32°07' W 081°08'0 0.1
2017-Sep-18 18:01N 32°07' W 081°08'0 0.0
2017-Sep-18 17:30N 32°07' W 081°08'1 2.9
2017-Sep-18 17:01N 32°06' W 081°07'2 3.3
2017-Sep-18 16:31N 32°05' W 081°06'2 3.2
2017-Sep-18 16:01N 32°05' W 081°04'3 5.3
2017-Sep-18 15:30N 32°06' W 081°01'5 9.1
2017-Sep-18 15:00N 32°03' W 080°56'510.2
2017-Sep-18 14:30N 32°02' W 080°51'613.0
2017-Sep-18 14:00N 31°58' W 080°44'611.7
2017-Sep-18 13:30N 31°57' W 080°38'4 7.1
2017-Sep-18 13:00N 31°57' W 080°34'2 3.9
2017-Sep-18 12:26N 31°58' W 080°31'0 0.1
2017-Sep-18 11:26N 31°58' W 080°31'0 0.1
2017-Sep-18 10:56N 31°58' W 080°31'0 0.0
2017-Sep-18 10:26N 31°58' W 080°31'0 0.0
2017-Sep-18 09:56N 31°58' W 080°31'0 0.0
2017-Sep-18 09:08N 31°58' W 080°31'0 0.0
2017-Sep-18 08:50N 31°58' W 080°31'0 0.0
2017-Sep-18 08:26N 31°58' W 080°31'0 0.0
2017-Sep-18 07:44N 31°58' W 080°31'0 0.0
2017-Sep-18 07:26N 31°58' W 080°31'0 0.0
2017-Sep-18 06:56N 31°58' W 080°31'0 0.0
2017-Sep-18 06:26N 31°58' W 080°31'0 0.0
2017-Sep-18 05:56N 31°58' W 080°31'1 1.2
2017-Sep-18 05:28N 31°57' W 080°31'3 5.7
2017-Sep-18 04:59N 31°56' W 080°28'510.4
2017-Sep-18 04:30N 31°56' W 080°22'712.9
2017-Sep-18 04:00N 31°55' W 080°15'712.7
2017-Sep-18 03:27N 31°55' W 080°07'26514.1
2017-Sep-17 08:40N 34°28' W 075°48'311.5
2017-Sep-17 08:22N 34°30' W 075°45'4611.6
2017-Sep-17 04:23N 35°05' W 075°09'511.8
2017-Sep-17 04:00N 35°09' W 075°08'1613.4
2017-Sep-17 02:49N 35°25' W 075°05'2814.5
2017-Sep-17 00:52N 35°53' W 075°12'715.0
2017-Sep-17 00:24N 35°60' W 075°15'1315.0
2017-Sep-16 23:33N 36°11' W 075°20'114.9
2017-Sep-16 23:30N 36°12' W 075°20'3914.2
2017-Sep-16 20:45N 36°46' W 075°44'414.3
2017-Sep-16 20:30N 36°49' W 075°47'714.8
2017-Sep-16 20:00N 36°53' W 075°54'714.4
2017-Sep-16 19:30N 36°57' W 076°02'816.5
2017-Sep-16 19:00N 36°60' W 076°12'612.7
2017-Sep-16 18:30N 36°59' W 076°20'5 9.7
2017-Sep-16 17:59N 36°54' W 076°20'2 4.8
2017-Sep-16 17:31N 36°51' W 076°20'0 0.0
2017-Sep-16 17:00N 36°51' W 076°20'0 0.0
2017-Sep-16 16:30N 36°51' W 076°20'0 0.0
2017-Sep-16 16:00N 36°51' W 076°20'0 0.0
2017-Sep-16 15:30N 36°51' W 076°20'0 0.0
2017-Sep-16 15:00N 36°51' W 076°20'0 0.0
2017-Sep-16 14:30N 36°51' W 076°20'0 0.0
2017-Sep-16 14:00N 36°51' W 076°20'0 0.0
2017-Sep-16 13:30N 36°51' W 076°20'0 0.0
2017-Sep-16 13:00N 36°51' W 076°20'0 0.0
2017-Sep-16 12:30N 36°51' W 076°20'0 0.0
2017-Sep-16 12:00N 36°51' W 076°20'0 0.0
2017-Sep-16 11:30N 36°51' W 076°20'0 0.0
2017-Sep-16 11:00N 36°51' W 076°20'0 0.0
2017-Sep-16 10:30N 36°51' W 076°20'0 0.0
2017-Sep-16 10:00N 36°51' W 076°20'0 0.0
2017-Sep-16 09:30N 36°51' W 076°20'0 0.0
2017-Sep-16 09:00N 36°51' W 076°20'0 0.0
2017-Sep-16 08:30N 36°51' W 076°20'0 0.0
2017-Sep-16 08:00N 36°51' W 076°20'0 0.0
2017-Sep-16 07:30N 36°51' W 076°20'0 0.0
2017-Sep-16 07:00N 36°51' W 076°20'0 0.0
2017-Sep-16 06:30N 36°51' W 076°20'0 0.0
2017-Sep-16 06:00N 36°51' W 076°20'0 0.0
2017-Sep-16 05:24N 36°51' W 076°20'0 0.0
2017-Sep-16 05:00N 36°51' W 076°20'0 0.0
2017-Sep-16 04:30N 36°51' W 076°20'0 0.0
2017-Sep-16 04:00N 36°51' W 076°20'0 0.1
2017-Sep-16 03:30N 36°51' W 076°20'0 0.0
2017-Sep-16 03:00N 36°51' W 076°20'0 0.0
2017-Sep-16 02:30N 36°51' W 076°20'0 0.0
2017-Sep-16 02:00N 36°51' W 076°20'0 0.0
2017-Sep-16 01:27N 36°51' W 076°20'0 0.0
2017-Sep-16 01:00N 36°51' W 076°20'0 0.0
2017-Sep-16 00:30N 36°51' W 076°20'0 0.0
2017-Sep-16 00:00N 36°51' W 076°20'0 0.0
2017-Sep-15 23:30N 36°51' W 076°20'0 0.0
2017-Sep-15 23:00N 36°51' W 076°20'0 0.0
2017-Sep-15 22:30N 36°51' W 076°20'0 0.0
2017-Sep-15 22:00N 36°51' W 076°20'0 0.0
2017-Sep-15 21:30N 36°51' W 076°20'0 0.0
2017-Sep-15 21:00N 36°51' W 076°20'0 0.0
2017-Sep-15 20:30N 36°51' W 076°20'0 0.0
2017-Sep-15 20:00N 36°51' W 076°20'1 1.1
2017-Sep-15 19:30N 36°52' W 076°19'4 7.2
2017-Sep-15 19:00N 36°55' W 076°20'5 9.9
2017-Sep-15 18:30N 36°60' W 076°18'612.3
2017-Sep-15 18:00N 36°59' W 076°10'713.7
2017-Sep-15 17:30N 36°57' W 076°02'2 5.0
2017-Sep-15 17:00N 36°59' W 076°01'918.2
2017-Sep-15 16:30N 37°07' W 076°08'4917.5
2017-Sep-15 13:41N 37°56' W 076°10'319.2
2017-Sep-15 13:30N 37°59' W 076°12'1019.5
2017-Sep-15 12:59N 38°09' W 076°14'1618.4
2017-Sep-15 12:05N 38°25' W 076°21'211.6
2017-Sep-15 11:53N 38°27' W 076°22'818.6
2017-Sep-15 11:27N 38°34' W 076°26'818.9
2017-Sep-15 11:00N 38°43' W 076°26'1019.4
2017-Sep-15 10:30N 38°52' W 076°24'918.3
2017-Sep-15 10:00N 39°01' W 076°22'714.3
2017-Sep-15 09:30N 39°08' W 076°24'611.5
2017-Sep-15 09:00N 39°12' W 076°30'4 8.4
2017-Sep-15 08:30N 39°15' W 076°34'1 1.3
2017-Sep-15 07:55N 39°15' W 076°33'0 0.0
2017-Sep-15 07:28N 39°15' W 076°33'0 0.0
2017-Sep-15 06:58N 39°15' W 076°33'0 0.0
2017-Sep-15 06:29N 39°15' W 076°33'0 0.0
2017-Sep-15 05:59N 39°15' W 076°33'0 0.0
2017-Sep-15 05:29N 39°15' W 076°33'0 0.0
2017-Sep-15 04:58N 39°15' W 076°33'0 0.0
2017-Sep-15 04:29N 39°15' W 076°33'0 0.0
2017-Sep-15 03:59N 39°15' W 076°33'0 0.0
2017-Sep-15 03:28N 39°15' W 076°33'0 0.0
2017-Sep-15 02:59N 39°15' W 076°33'0 0.0
2017-Sep-15 02:28N 39°15' W 076°33'0 0.0
2017-Sep-15 01:59N 39°15' W 076°33'0 0.0
2017-Sep-15 01:28N 39°15' W 076°33'0 0.0
2017-Sep-15 00:58N 39°15' W 076°33'0 0.0
2017-Sep-15 00:29N 39°15' W 076°33'0 0.0
2017-Sep-14 23:59N 39°15' W 076°33'0 0.0
2017-Sep-14 23:29N 39°15' W 076°33'0 0.0
2017-Sep-14 22:59N 39°15' W 076°33'0 0.0
2017-Sep-14 22:28N 39°15' W 076°33'0 0.0
2017-Sep-14 21:58N 39°15' W 076°33'0 0.0
2017-Sep-14 21:29N 39°15' W 076°33'0 0.0
2017-Sep-14 20:58N 39°15' W 076°33'0 0.0
2017-Sep-14 20:28N 39°15' W 076°33'0 0.0
2017-Sep-14 19:58N 39°15' W 076°33'0 0.0
2017-Sep-14 19:28N 39°15' W 076°33'0 0.0
2017-Sep-14 18:58N 39°15' W 076°33'0 0.0
2017-Sep-14 18:28N 39°15' W 076°33'0 0.0
2017-Sep-14 17:58N 39°15' W 076°33'0 0.0
2017-Sep-14 17:28N 39°15' W 076°33'0 0.0
2017-Sep-14 16:58N 39°15' W 076°33'0 0.0
2017-Sep-14 16:28N 39°15' W 076°33'0 0.0
2017-Sep-14 15:58N 39°15' W 076°33'0 0.0
2017-Sep-14 15:28N 39°15' W 076°33'0 0.0
2017-Sep-14 14:58N 39°15' W 076°33'0 0.0
2017-Sep-14 14:28N 39°15' W 076°33'0 0.0
2017-Sep-14 13:58N 39°15' W 076°33'0 0.0
2017-Sep-14 13:28N 39°15' W 076°33'0 0.0
2017-Sep-14 12:58N 39°15' W 076°33'0 0.0
2017-Sep-14 12:28N 39°15' W 076°33'0 0.0
2017-Sep-14 11:55N 39°15' W 076°33'0 0.0
2017-Sep-14 11:28N 39°15' W 076°33'0 0.0
2017-Sep-14 10:58N 39°15' W 076°33'0 0.0
2017-Sep-14 10:28N 39°15' W 076°33'0 0.0
2017-Sep-14 09:59N 39°15' W 076°33'0 0.0
2017-Sep-14 09:29N 39°15' W 076°33'0 0.0
2017-Sep-14 08:59N 39°15' W 076°33'0 0.1
2017-Sep-14 08:30N 39°15' W 076°33'1 2.7
2017-Sep-14 08:00N 39°14' W 076°33'3 6.8
2017-Sep-14 07:30N 39°12' W 076°29'612.0
2017-Sep-14 07:01N 39°08' W 076°24'815.5
2017-Sep-14 06:31N 38°60' W 076°23'917.5
2017-Sep-14 06:01N 38°51' W 076°24'1019.4
2017-Sep-14 05:31N 38°41' W 076°25'918.6
2017-Sep-14 05:01N 38°32' W 076°25'1019.8
2017-Sep-14 04:31N 38°23' W 076°20'1019.9
2017-Sep-14 04:01N 38°14' W 076°15'1019.6
2017-Sep-14 03:31N 38°04' W 076°13'1019.1
2017-Sep-14 03:00N 37°55' W 076°09'1019.5
2017-Sep-14 02:30N 37°45' W 076°11'917.8
2017-Sep-14 02:00N 37°37' W 076°06'816.5
2017-Sep-14 01:31N 37°29' W 076°03'917.7
2017-Sep-14 01:00N 37°21' W 076°05'917.9
2017-Sep-14 00:29N 37°12' W 076°09'817.0
2017-Sep-14 00:01N 37°04' W 076°06'816.8
2017-Sep-13 23:31N 36°58' W 075°59'612.9
2017-Sep-13 23:01N 36°54' W 075°53'714.1
2017-Sep-13 22:31N 36°50' W 075°46'6514.1
2017-Sep-13 17:55N 37°18' W 074°33'613.7
2017-Sep-13 17:27N 37°22' W 074°26'813.8
2017-Sep-13 16:55N 37°27' W 074°19'4813.9
2017-Sep-13 13:29N 37°54' W 073°30'613.7
2017-Sep-13 13:00N 37°58' W 073°23'713.8
2017-Sep-13 12:30N 38°02' W 073°16'713.6
2017-Sep-13 11:59N 38°06' W 073°08'713.5
2017-Sep-13 11:30N 38°09' W 073°01'713.6
2017-Sep-13 11:00N 38°13' W 072°54'713.5
2017-Sep-13 10:28N 38°17' W 072°47'713.9
2017-Sep-13 10:00N 38°21' W 072°40'714.0
2017-Sep-13 09:31N 38°25' W 072°33'713.8
2017-Sep-13 09:00N 38°29' W 072°25'713.9
2017-Sep-13 08:31N 38°33' W 072°18'714.2
2017-Sep-13 08:01N 38°37' W 072°11'713.9
2017-Sep-13 07:31N 38°41' W 072°03'713.9
2017-Sep-13 07:01N 38°45' W 071°56'713.7
2017-Sep-13 06:31N 38°49' W 071°49'713.9
2017-Sep-13 06:00N 38°53' W 071°42'713.7
2017-Sep-13 05:30N 38°57' W 071°34'713.9
2017-Sep-13 05:00N 39°00' W 071°27'713.7
2017-Sep-13 04:30N 39°04' W 071°20'713.6
2017-Sep-13 04:00N 39°08' W 071°12'713.6
2017-Sep-13 03:30N 39°12' W 071°05'713.7
2017-Sep-13 03:00N 39°16' W 070°58'713.6
2017-Sep-13 02:30N 39°20' W 070°51'713.3
2017-Sep-13 02:00N 39°24' W 070°44'713.3
2017-Sep-13 01:30N 39°28' W 070°37'713.4
2017-Sep-13 01:00N 39°32' W 070°30'713.2
2017-Sep-13 00:27N 39°36' W 070°22'613.3
2017-Sep-13 00:00N 39°39' W 070°15'4713.9
2017-Sep-12 20:38N 40°06' W 069°25'2114.5
2017-Sep-12 19:13N 40°17' W 069°03'4913.7
2017-Sep-12 15:41N 41°05' W 069°14'313.9
2017-Sep-12 15:30N 41°07' W 069°15'713.8
2017-Sep-12 15:00N 41°13' W 069°19'713.7
2017-Sep-12 14:30N 41°20' W 069°23'713.7
2017-Sep-12 14:00N 41°26' W 069°27'714.7
2017-Sep-12 13:30N 41°32' W 069°32'815.1
2017-Sep-12 13:00N 41°39' W 069°36'715.0
2017-Sep-12 12:30N 41°46' W 069°41'714.9
2017-Sep-12 12:00N 41°52' W 069°45'815.1
2017-Sep-12 11:30N 41°59' W 069°50'714.8
2017-Sep-12 11:00N 42°06' W 069°55'714.5
2017-Sep-12 10:30N 42°12' W 069°59'714.0
2017-Sep-12 10:00N 42°17' W 070°05'815.0
2017-Sep-12 09:30N 42°18' W 070°15'714.8
2017-Sep-12 09:00N 42°18' W 070°25'714.6
2017-Sep-12 08:30N 42°19' W 070°35'714.4
2017-Sep-12 08:00N 42°21' W 070°44'713.4
2017-Sep-12 07:30N 42°23' W 070°53'510.6
2017-Sep-12 07:00N 42°20' W 070°59'2 3.0
2017-Sep-12 06:30N 42°21' W 071°01'0 0.1
2017-Sep-12 06:00N 42°21' W 071°01'0 0.0
2017-Sep-12 05:30N 42°21' W 071°01'0 0.0
2017-Sep-12 05:00N 42°21' W 071°01'0 0.0
2017-Sep-12 04:30N 42°21' W 071°01'0 0.0
2017-Sep-12 04:00N 42°21' W 071°01'0 0.0
2017-Sep-12 03:30N 42°21' W 071°01'0 0.0
2017-Sep-12 03:00N 42°21' W 071°01'0 0.0
2017-Sep-12 02:31N 42°21' W 071°01'0 0.0
2017-Sep-12 02:00N 42°21' W 071°01'0 0.0
2017-Sep-12 01:30N 42°21' W 071°01'0 0.0
2017-Sep-12 01:01N 42°21' W 071°01'0 0.0
2017-Sep-12 00:30N 42°21' W 071°01'0 0.0
2017-Sep-12 00:00N 42°21' W 071°01'0 0.0
2017-Sep-11 23:30N 42°21' W 071°01'0 0.0
2017-Sep-11 23:00N 42°21' W 071°01'0 0.0
2017-Sep-11 22:30N 42°21' W 071°01'0 0.0
2017-Sep-11 22:00N 42°21' W 071°01'0 0.0
2017-Sep-11 21:30N 42°21' W 071°01'0 0.0
2017-Sep-11 21:00N 42°21' W 071°01'0 0.0
2017-Sep-11 20:30N 42°21' W 071°01'0 0.0
2017-Sep-11 20:00N 42°21' W 071°01'0 0.0
2017-Sep-11 19:30N 42°21' W 071°01'0 0.0
2017-Sep-11 19:00N 42°21' W 071°01'0 0.0
2017-Sep-11 18:30N 42°21' W 071°01'0 0.0
2017-Sep-11 18:00N 42°21' W 071°01'0 0.0
2017-Sep-11 17:30N 42°21' W 071°01'0 0.0
2017-Sep-11 17:00N 42°21' W 071°01'0 0.0
2017-Sep-11 16:30N 42°21' W 071°01'0 0.0
2017-Sep-11 16:00N 42°21' W 071°01'0 0.0
2017-Sep-11 15:30N 42°21' W 071°01'0 0.0
2017-Sep-11 15:00N 42°21' W 071°01'0 0.0
2017-Sep-11 14:27N 42°21' W 071°01'0 0.0
2017-Sep-11 14:00N 42°21' W 071°01'0 0.0
2017-Sep-11 13:30N 42°21' W 071°01'0 0.0
2017-Sep-11 13:00N 42°21' W 071°01'0 0.0
2017-Sep-11 12:30N 42°21' W 071°01'0 0.0
2017-Sep-11 12:00N 42°21' W 071°01'0 0.0
2017-Sep-11 11:30N 42°21' W 071°01'0 0.0
2017-Sep-11 11:00N 42°21' W 071°01'0 0.0
2017-Sep-11 10:30N 42°21' W 071°01'0 0.0
2017-Sep-11 10:00N 42°21' W 071°01'0 0.0
2017-Sep-11 09:30N 42°21' W 071°01'0 0.0
2017-Sep-11 09:00N 42°21' W 071°01'1 1.2
2017-Sep-11 08:30N 42°20' W 071°00'3 6.8
2017-Sep-11 08:00N 42°21' W 070°56'4 8.3
2017-Sep-11 07:30N 42°24' W 070°52'4 8.7
2017-Sep-11 07:00N 42°23' W 070°46'510.9
2017-Sep-11 06:30N 42°22' W 070°39'714.1
2017-Sep-11 06:00N 42°21' W 070°29'713.1
2017-Sep-11 05:30N 42°21' W 070°20'612.7
2017-Sep-11 05:00N 42°21' W 070°12'612.7
2017-Sep-11 04:30N 42°20' W 070°03'713.6
2017-Sep-11 04:01N 42°15' W 069°57'713.9
2017-Sep-11 03:31N 42°09' W 069°53'714.2
2017-Sep-11 03:00N 42°03' W 069°49'714.4
2017-Sep-11 02:30N 41°56' W 069°44'714.5
2017-Sep-11 02:00N 41°50' W 069°40'815.8
2017-Sep-11 01:30N 41°42' W 069°35'815.6
2017-Sep-11 01:00N 41°36' W 069°30'815.3
2017-Sep-11 00:30N 41°29' W 069°25'714.9
2017-Sep-11 00:00N 41°22' W 069°21'20712.1
2017-Sep-10 06:56N 40°25' W 073°44'613.3
2017-Sep-10 06:30N 40°28' W 073°51'816.8
2017-Sep-10 06:01N 40°32' W 074°01'713.3
2017-Sep-10 05:30N 40°38' W 074°03'3 6.8
2017-Sep-10 05:00N 40°39' W 074°08'2 3.2
2017-Sep-10 04:31N 40°40' W 074°08'0 0.3
2017-Sep-10 04:00N 40°40' W 074°09'0 0.1
2017-Sep-10 03:30N 40°40' W 074°09'0 0.0
2017-Sep-10 03:00N 40°40' W 074°09'0 0.0
2017-Sep-10 02:30N 40°40' W 074°09'0 0.0
2017-Sep-10 02:00N 40°40' W 074°09'0 0.0
2017-Sep-10 01:30N 40°40' W 074°09'0 0.1
2017-Sep-10 01:00N 40°40' W 074°09'0 0.0
2017-Sep-10 00:30N 40°40' W 074°09'0 0.0
2017-Sep-10 00:00N 40°40' W 074°09'0 0.0
2017-Sep-09 23:30N 40°40' W 074°09'0 0.0
2017-Sep-09 23:00N 40°40' W 074°09'0 0.0
2017-Sep-09 22:30N 40°40' W 074°09'0 0.0
2017-Sep-09 22:00N 40°40' W 074°09'0 0.0
2017-Sep-09 21:30N 40°40' W 074°09'0 0.0
2017-Sep-09 21:00N 40°40' W 074°09'0 0.0
2017-Sep-09 20:27N 40°40' W 074°09'0 0.0
2017-Sep-09 20:00N 40°40' W 074°09'0 0.0
2017-Sep-09 19:30N 40°40' W 074°09'0 0.0
2017-Sep-09 19:00N 40°40' W 074°09'0 0.0
2017-Sep-09 18:30N 40°40' W 074°09'0 0.0
2017-Sep-09 18:00N 40°40' W 074°09'0 0.0
2017-Sep-09 17:30N 40°40' W 074°09'  
Track history (hours):
 
Tides and Currents Weather Stations Pressure Air Temp Water Temp Dewpoint Dewpoint Depression Visibility Wind Speed Wind Dir Waves Ship Positions

APL Illinois

Last reported at 2017-Sep-19 17:12 UTC. Time now 2017-Sep-19 20:37 UTC.
Position N 31°56' W 080°26'.

Length 304 m; draft 10.8 m.

Type: Ship (hazmat cat C). MMSI: 249851000.

Date/timePositionNaut miles runAvg speedWind from/ knotsBaromVisibWave heightAir tempDewpointWater temp
2017-Sep-19 17:12N 31°56' W 080°26'413.5
2017-Sep-19 16:54N 31°56' W 080°30'814.1
2017-Sep-19 16:20N 31°57' W 080°40'412.4
2017-Sep-19 16:00N 31°58' W 080°44'815.8
2017-Sep-19 15:30N 32°02' W 080°52'612.6
2017-Sep-19 15:00N 32°05' W 080°59'4 8.5
2017-Sep-19 14:31N 32°05' W 081°04'3 5.3
2017-Sep-19 14:00N 32°06' W 081°07'2 3.4
2017-Sep-19 13:30N 32°07' W 081°08'0 0.0
2017-Sep-19 12:54N 32°07' W 081°08'0 0.0
2017-Sep-19 12:30N 32°07' W 081°08'0 0.0
2017-Sep-19 12:00N 32°07' W 081°08'0 0.0
2017-Sep-19 11:30N 32°07' W 081°08'0 0.0
2017-Sep-19 10:59N 32°07' W 081°08'0 0.0
2017-Sep-19 10:30N 32°07' W 081°08'0 0.0
2017-Sep-19 09:29N 32°07' W 081°08'0 0.0
2017-Sep-19 08:59N 32°07' W 081°08'0 0.0
2017-Sep-19 08:29N 32°07' W 081°08'0 0.0
2017-Sep-19 07:47N 32°07' W 081°08'0 0.1
2017-Sep-19 07:29N 32°07' W 081°08'0 0.0
2017-Sep-19 06:59N 32°07' W 081°08'0 0.0
2017-Sep-19 06:30N 32°07' W 081°08'0 0.0
2017-Sep-19 05:59N 32°07' W 081°08'0 0.0
2017-Sep-19 05:24N 32°07' W 081°08'0 0.0
2017-Sep-19 04:54N 32°07' W 081°08'0 0.0
2017-Sep-19 04:20N 32°07' W 081°08'0 0.0
2017-Sep-19 03:53N 32°07' W 081°08'0 0.0
2017-Sep-19 03:29N 32°07' W 081°08'0 0.0
2017-Sep-19 03:00N 32°07' W 081°08'0 0.0
2017-Sep-19 02:29N 32°07' W 081°08'0 0.0
2017-Sep-19 01:59N 32°07' W 081°08'0 0.0
2017-Sep-19 01:29N 32°07' W 081°08'0 0.0
2017-Sep-19 00:59N 32°07' W 081°08'0 0.0
2017-Sep-19 00:30N 32°07' W 081°08'0 0.0
2017-Sep-19 00:00N 32°07' W 081°08'0 0.0
2017-Sep-18 23:29N 32°07' W 081°08'0 0.0
2017-Sep-18 22:59N 32°07' W 081°08'0 0.0
2017-Sep-18 22:30N 32°07' W 081°08'0 0.0
2017-Sep-18 21:59N 32°07' W 081°08'0 0.0
2017-Sep-18 21:24N 32°07' W 081°08'0 0.0
2017-Sep-18 21:00N 32°07' W 081°08'0 0.0
2017-Sep-18 20:29N 32°07' W 081°08'0 0.0
2017-Sep-18 19:59N 32°07' W 081°08'0 0.0
2017-Sep-18 19:30N 32°07' W 081°08'0 0.0
2017-Sep-18 19:00N 32°07' W 081°08'0 0.0
2017-Sep-18 18:29N 32°07' W 081°08'0 0.1
2017-Sep-18 18:01N 32°07' W 081°08'0 0.0
2017-Sep-18 17:30N 32°07' W 081°08'1 2.9
2017-Sep-18 17:01N 32°06' W 081°07'2 3.3
2017-Sep-18 16:31N 32°05' W 081°06'2 3.2
2017-Sep-18 16:01N 32°05' W 081°04'3 5.3
2017-Sep-18 15:30N 32°06' W 081°01'5 9.1
2017-Sep-18 15:00N 32°03' W 080°56'510.2
2017-Sep-18 14:30N 32°02' W 080°51'613.0
2017-Sep-18 14:00N 31°58' W 080°44'611.7
2017-Sep-18 13:30N 31°57' W 080°38'4 7.1
2017-Sep-18 13:00N 31°57' W 080°34'2 3.9
2017-Sep-18 12:26N 31°58' W 080°31'0 0.1
2017-Sep-18 11:26N 31°58' W 080°31'0 0.1
2017-Sep-18 10:56N 31°58' W 080°31'0 0.0
2017-Sep-18 10:26N 31°58' W 080°31'0 0.0
2017-Sep-18 09:56N 31°58' W 080°31'0 0.0
2017-Sep-18 09:08N 31°58' W 080°31'0 0.0
2017-Sep-18 08:50N 31°58' W 080°31'0 0.0
2017-Sep-18 08:26N 31°58' W 080°31'0 0.0
2017-Sep-18 07:44N 31°58' W 080°31'0 0.0
2017-Sep-18 07:26N 31°58' W 080°31'0 0.0
2017-Sep-18 06:56N 31°58' W 080°31'0 0.0
2017-Sep-18 06:26N 31°58' W 080°31'0 0.0
2017-Sep-18 05:56N 31°58' W 080°31'1 1.2
2017-Sep-18 05:28N 31°57' W 080°31'3 5.7
2017-Sep-18 04:59N 31°56' W 080°28'510.4
2017-Sep-18 04:30N 31°56' W 080°22'712.9
2017-Sep-18 04:00N 31°55' W 080°15'712.7
2017-Sep-18 03:27N 31°55' W 080°07'26514.1
2017-Sep-17 08:40N 34°28' W 075°48'311.5
2017-Sep-17 08:22N 34°30' W 075°45'4611.6
2017-Sep-17 04:23N 35°05' W 075°09'511.8
2017-Sep-17 04:00N 35°09' W 075°08'1613.4
2017-Sep-17 02:49N 35°25' W 075°05'2814.5
2017-Sep-17 00:52N 35°53' W 075°12'715.0
2017-Sep-17 00:24N 35°60' W 075°15'1315.0
2017-Sep-16 23:33N 36°11' W 075°20'114.9
2017-Sep-16 23:30N 36°12' W 075°20'3914.2
2017-Sep-16 20:45N 36°46' W 075°44'414.3
2017-Sep-16 20:30N 36°49' W 075°47'714.8
2017-Sep-16 20:00N 36°53' W 075°54'714.4
2017-Sep-16 19:30N 36°57' W 076°02'816.5
2017-Sep-16 19:00N 36°60' W 076°12'612.7
2017-Sep-16 18:30N 36°59' W 076°20'5 9.7
2017-Sep-16 17:59N 36°54' W 076°20'2 4.8
2017-Sep-16 17:31N 36°51' W 076°20'0 0.0
2017-Sep-16 17:00N 36°51' W 076°20'0 0.0
2017-Sep-16 16:30N 36°51' W 076°20'0 0.0
2017-Sep-16 16:00N 36°51' W 076°20'0 0.0
2017-Sep-16 15:30N 36°51' W 076°20'0 0.0
2017-Sep-16 15:00N 36°51' W 076°20'0 0.0
2017-Sep-16 14:30N 36°51' W 076°20'0 0.0
2017-Sep-16 14:00N 36°51' W 076°20'0 0.0
2017-Sep-16 13:30N 36°51' W 076°20'0 0.0
2017-Sep-16 13:00N 36°51' W 076°20'0 0.0
2017-Sep-16 12:30N 36°51' W 076°20'0 0.0
2017-Sep-16 12:00N 36°51' W 076°20'0 0.0
2017-Sep-16 11:30N 36°51' W 076°20'0 0.0
2017-Sep-16 11:00N 36°51' W 076°20'0 0.0
2017-Sep-16 10:30N 36°51' W 076°20'0 0.0
2017-Sep-16 10:00N 36°51' W 076°20'0 0.0
2017-Sep-16 09:30N 36°51' W 076°20'0 0.0
2017-Sep-16 09:00N 36°51' W 076°20'0 0.0
2017-Sep-16 08:30N 36°51' W 076°20'0 0.0
2017-Sep-16 08:00N 36°51' W 076°20'0 0.0
2017-Sep-16 07:30N 36°51' W 076°20'0 0.0
2017-Sep-16 07:00N 36°51' W 076°20'0 0.0
2017-Sep-16 06:30N 36°51' W 076°20'0 0.0
2017-Sep-16 06:00N 36°51' W 076°20'0 0.0
2017-Sep-16 05:24N 36°51' W 076°20'0 0.0
2017-Sep-16 05:00N 36°51' W 076°20'0 0.0
2017-Sep-16 04:30N 36°51' W 076°20'0 0.0
2017-Sep-16 04:00N 36°51' W 076°20'0 0.1
2017-Sep-16 03:30N 36°51' W 076°20'0 0.0
2017-Sep-16 03:00N 36°51' W 076°20'0 0.0
2017-Sep-16 02:30N 36°51' W 076°20'0 0.0
2017-Sep-16 02:00N 36°51' W 076°20'0 0.0
2017-Sep-16 01:27N 36°51' W 076°20'0 0.0
2017-Sep-16 01:00N 36°51' W 076°20'0 0.0
2017-Sep-16 00:30N 36°51' W 076°20'0 0.0
2017-Sep-16 00:00N 36°51' W 076°20'0 0.0
2017-Sep-15 23:30N 36°51' W 076°20'0 0.0
2017-Sep-15 23:00N 36°51' W 076°20'0 0.0
2017-Sep-15 22:30N 36°51' W 076°20'0 0.0
2017-Sep-15 22:00N 36°51' W 076°20'0 0.0
2017-Sep-15 21:30N 36°51' W 076°20'0 0.0
2017-Sep-15 21:00N 36°51' W 076°20'0 0.0
2017-Sep-15 20:30N 36°51' W 076°20'0 0.0
2017-Sep-15 20:00N 36°51' W 076°20'1 1.1
2017-Sep-15 19:30N 36°52' W 076°19'4 7.2
2017-Sep-15 19:00N 36°55' W 076°20'5 9.9
2017-Sep-15 18:30N 36°60' W 076°18'612.3
2017-Sep-15 18:00N 36°59' W 076°10'713.7
2017-Sep-15 17:30N 36°57' W 076°02'2 5.0
2017-Sep-15 17:00N 36°59' W 076°01'918.2
2017-Sep-15 16:30N 37°07' W 076°08'4917.5
2017-Sep-15 13:41N 37°56' W 076°10'319.2
2017-Sep-15 13:30N 37°59' W 076°12'1019.5
2017-Sep-15 12:59N 38°09' W 076°14'1618.4
2017-Sep-15 12:05N 38°25' W 076°21'211.6
2017-Sep-15 11:53N 38°27' W 076°22'818.6
2017-Sep-15 11:27N 38°34' W 076°26'818.9
2017-Sep-15 11:00N 38°43' W 076°26'1019.4
2017-Sep-15 10:30N 38°52' W 076°24'918.3
2017-Sep-15 10:00N 39°01' W 076°22'714.3
2017-Sep-15 09:30N 39°08' W 076°24'611.5
2017-Sep-15 09:00N 39°12' W 076°30'4 8.4
2017-Sep-15 08:30N 39°15' W 076°34'1 1.3
2017-Sep-15 07:55N 39°15' W 076°33'0 0.0
2017-Sep-15 07:28N 39°15' W 076°33'0 0.0
2017-Sep-15 06:58N 39°15' W 076°33'0 0.0
2017-Sep-15 06:29N 39°15' W 076°33'0 0.0
2017-Sep-15 05:59N 39°15' W 076°33'0 0.0
2017-Sep-15 05:29N 39°15' W 076°33'0 0.0
2017-Sep-15 04:58N 39°15' W 076°33'0 0.0
2017-Sep-15 04:29N 39°15' W 076°33'0 0.0
2017-Sep-15 03:59N 39°15' W 076°33'0 0.0
2017-Sep-15 03:28N 39°15' W 076°33'0 0.0
2017-Sep-15 02:59N 39°15' W 076°33'0 0.0
2017-Sep-15 02:28N 39°15' W 076°33'0 0.0
2017-Sep-15 01:59N 39°15' W 076°33'0 0.0
2017-Sep-15 01:28N 39°15' W 076°33'0 0.0
2017-Sep-15 00:58N 39°15' W 076°33'0 0.0
2017-Sep-15 00:29N 39°15' W 076°33'0 0.0
2017-Sep-14 23:59N 39°15' W 076°33'0 0.0
2017-Sep-14 23:29N 39°15' W 076°33'0 0.0
2017-Sep-14 22:59N 39°15' W 076°33'0 0.0
2017-Sep-14 22:28N 39°15' W 076°33'0 0.0
2017-Sep-14 21:58N 39°15' W 076°33'0 0.0
2017-Sep-14 21:29N 39°15' W 076°33'0 0.0
2017-Sep-14 20:58N 39°15' W 076°33'0 0.0
2017-Sep-14 20:28N 39°15' W 076°33'0 0.0
2017-Sep-14 19:58N 39°15' W 076°33'0 0.0
2017-Sep-14 19:28N 39°15' W 076°33'0 0.0
2017-Sep-14 18:58N 39°15' W 076°33'0 0.0
2017-Sep-14 18:28N 39°15' W 076°33'0 0.0
2017-Sep-14 17:58N 39°15' W 076°33'0 0.0
2017-Sep-14 17:28N 39°15' W 076°33'0 0.0
2017-Sep-14 16:58N 39°15' W 076°33'0 0.0
2017-Sep-14 16:28N 39°15' W 076°33'0 0.0
2017-Sep-14 15:58N 39°15' W 076°33'0 0.0
2017-Sep-14 15:28N 39°15' W 076°33'0 0.0
2017-Sep-14 14:58N 39°15' W 076°33'0 0.0
2017-Sep-14 14:28N 39°15' W 076°33'0 0.0
2017-Sep-14 13:58N 39°15' W 076°33'0 0.0
2017-Sep-14 13:28N 39°15' W 076°33'0 0.0
2017-Sep-14 12:58N 39°15' W 076°33'0 0.0
2017-Sep-14 12:28N 39°15' W 076°33'0 0.0
2017-Sep-14 11:55N 39°15' W 076°33'0 0.0
2017-Sep-14 11:28N 39°15' W 076°33'0 0.0
2017-Sep-14 10:58N 39°15' W 076°33'0 0.0
2017-Sep-14 10:28N 39°15' W 076°33'0 0.0
2017-Sep-14 09:59N 39°15' W 076°33'0 0.0
2017-Sep-14 09:29N 39°15' W 076°33'0 0.0
2017-Sep-14 08:59N 39°15' W 076°33'0 0.1
2017-Sep-14 08:30N 39°15' W 076°33'1 2.7
2017-Sep-14 08:00N 39°14' W 076°33'3 6.8
2017-Sep-14 07:30N 39°12' W 076°29'612.0
2017-Sep-14 07:01N 39°08' W 076°24'815.5
2017-Sep-14 06:31N 38°60' W 076°23'917.5
2017-Sep-14 06:01N 38°51' W 076°24'1019.4
2017-Sep-14 05:31N 38°41' W 076°25'918.6
2017-Sep-14 05:01N 38°32' W 076°25'1019.8
2017-Sep-14 04:31N 38°23' W 076°20'1019.9
2017-Sep-14 04:01N 38°14' W 076°15'1019.6
2017-Sep-14 03:31N 38°04' W 076°13'1019.1
2017-Sep-14 03:00N 37°55' W 076°09'1019.5
2017-Sep-14 02:30N 37°45' W 076°11'917.8
2017-Sep-14 02:00N 37°37' W 076°06'816.5
2017-Sep-14 01:31N 37°29' W 076°03'917.7
2017-Sep-14 01:00N 37°21' W 076°05'917.9
2017-Sep-14 00:29N 37°12' W 076°09'817.0
2017-Sep-14 00:01N 37°04' W 076°06'816.8
2017-Sep-13 23:31N 36°58' W 075°59'612.9
2017-Sep-13 23:01N 36°54' W 075°53'714.1
2017-Sep-13 22:31N 36°50' W 075°46'6514.1
2017-Sep-13 17:55N 37°18' W 074°33'613.7
2017-Sep-13 17:27N 37°22' W 074°26'813.8
2017-Sep-13 16:55N 37°27' W 074°19'4813.9
2017-Sep-13 13:29N 37°54' W 073°30'613.7
2017-Sep-13 13:00N 37°58' W 073°23'713.8
2017-Sep-13 12:30N 38°02' W 073°16'713.6
2017-Sep-13 11:59N 38°06' W 073°08'713.5
2017-Sep-13 11:30N 38°09' W 073°01'713.6
2017-Sep-13 11:00N 38°13' W 072°54'713.5
2017-Sep-13 10:28N 38°17' W 072°47'713.9
2017-Sep-13 10:00N 38°21' W 072°40'714.0
2017-Sep-13 09:31N 38°25' W 072°33'713.8
2017-Sep-13 09:00N 38°29' W 072°25'713.9
2017-Sep-13 08:31N 38°33' W 072°18'714.2
2017-Sep-13 08:01N 38°37' W 072°11'713.9
2017-Sep-13 07:31N 38°41' W 072°03'713.9
2017-Sep-13 07:01N 38°45' W 071°56'713.7
2017-Sep-13 06:31N 38°49' W 071°49'713.9
2017-Sep-13 06:00N 38°53' W 071°42'713.7
2017-Sep-13 05:30N 38°57' W 071°34'713.9
2017-Sep-13 05:00N 39°00' W 071°27'713.7
2017-Sep-13 04:30N 39°04' W 071°20'713.6
2017-Sep-13 04:00N 39°08' W 071°12'713.6
2017-Sep-13 03:30N 39°12' W 071°05'713.7
2017-Sep-13 03:00N 39°16' W 070°58'713.6
2017-Sep-13 02:30N 39°20' W 070°51'713.3
2017-Sep-13 02:00N 39°24' W 070°44'713.3
2017-Sep-13 01:30N 39°28' W 070°37'713.4
2017-Sep-13 01:00N 39°32' W 070°30'713.2
2017-Sep-13 00:27N 39°36' W 070°22'613.3
2017-Sep-13 00:00N 39°39' W 070°15'4713.9
2017-Sep-12 20:38N 40°06' W 069°25'2114.5
2017-Sep-12 19:13N 40°17' W 069°03'4913.7
2017-Sep-12 15:41N 41°05' W 069°14'313.9
2017-Sep-12 15:30N 41°07' W 069°15'713.8
2017-Sep-12 15:00N 41°13' W 069°19'713.7
2017-Sep-12 14:30N 41°20' W 069°23'713.7
2017-Sep-12 14:00N 41°26' W 069°27'714.7
2017-Sep-12 13:30N 41°32' W 069°32'815.1
2017-Sep-12 13:00N 41°39' W 069°36'715.0
2017-Sep-12 12:30N 41°46' W 069°41'714.9
2017-Sep-12 12:00N 41°52' W 069°45'815.1
2017-Sep-12 11:30N 41°59' W 069°50'714.8
2017-Sep-12 11:00N 42°06' W 069°55'714.5
2017-Sep-12 10:30N 42°12' W 069°59'714.0
2017-Sep-12 10:00N 42°17' W 070°05'815.0
2017-Sep-12 09:30N 42°18' W 070°15'714.8
2017-Sep-12 09:00N 42°18' W 070°25'714.6
2017-Sep-12 08:30N 42°19' W 070°35'714.4
2017-Sep-12 08:00N 42°21' W 070°44'713.4
2017-Sep-12 07:30N 42°23' W 070°53'510.6
2017-Sep-12 07:00N 42°20' W 070°59'2 3.0
2017-Sep-12 06:30N 42°21' W 071°01'0 0.1
2017-Sep-12 06:00N 42°21' W 071°01'0 0.0
2017-Sep-12 05:30N 42°21' W 071°01'0 0.0
2017-Sep-12 05:00N 42°21' W 071°01'0 0.0
2017-Sep-12 04:30N 42°21' W 071°01'0 0.0
2017-Sep-12 04:00N 42°21' W 071°01'0 0.0
2017-Sep-12 03:30N 42°21' W 071°01'0 0.0
2017-Sep-12 03:00N 42°21' W 071°01'0 0.0
2017-Sep-12 02:31N 42°21' W 071°01'0 0.0
2017-Sep-12 02:00N 42°21' W 071°01'0 0.0
2017-Sep-12 01:30N 42°21' W 071°01'0 0.0
2017-Sep-12 01:01N 42°21' W 071°01'0 0.0
2017-Sep-12 00:30N 42°21' W 071°01'0 0.0
2017-Sep-12 00:00N 42°21' W 071°01'0 0.0
2017-Sep-11 23:30N 42°21' W 071°01'0 0.0
2017-Sep-11 23:00N 42°21' W 071°01'0 0.0
2017-Sep-11 22:30N 42°21' W 071°01'0 0.0
2017-Sep-11 22:00N 42°21' W 071°01'0 0.0
2017-Sep-11 21:30N 42°21' W 071°01'0 0.0
2017-Sep-11 21:00N 42°21' W 071°01'0 0.0
2017-Sep-11 20:30N 42°21' W 071°01'0 0.0
2017-Sep-11 20:00N 42°21' W 071°01'0 0.0
2017-Sep-11 19:30N 42°21' W 071°01'0 0.0
2017-Sep-11 19:00N 42°21' W 071°01'0 0.0
2017-Sep-11 18:30N 42°21' W 071°01'0 0.0
2017-Sep-11 18:00N 42°21' W 071°01'0 0.0
2017-Sep-11 17:30N 42°21' W 071°01'0 0.0
2017-Sep-11 17:00N 42°21' W 071°01'0 0.0
2017-Sep-11 16:30N 42°21' W 071°01'0 0.0
2017-Sep-11 16:00N 42°21' W 071°01'0 0.0
2017-Sep-11 15:30N 42°21' W 071°01'0 0.0
2017-Sep-11 15:00N 42°21' W 071°01'0 0.0
2017-Sep-11 14:27N 42°21' W 071°01'0 0.0
2017-Sep-11 14:00N 42°21' W 071°01'0 0.0
2017-Sep-11 13:30N 42°21' W 071°01'0 0.0
2017-Sep-11 13:00N 42°21' W 071°01'0 0.0
2017-Sep-11 12:30N 42°21' W 071°01'0 0.0
2017-Sep-11 12:00N 42°21' W 071°01'0 0.0
2017-Sep-11 11:30N 42°21' W 071°01'0 0.0
2017-Sep-11 11:00N 42°21' W 071°01'0 0.0
2017-Sep-11 10:30N 42°21' W 071°01'0 0.0
2017-Sep-11 10:00N 42°21' W 071°01'0 0.0
2017-Sep-11 09:30N 42°21' W 071°01'0 0.0
2017-Sep-11 09:00N 42°21' W 071°01'1 1.2
2017-Sep-11 08:30N 42°20' W 071°00'3 6.8
2017-Sep-11 08:00N 42°21' W 070°56'4 8.3
2017-Sep-11 07:30N 42°24' W 070°52'4 8.7
2017-Sep-11 07:00N 42°23' W 070°46'510.9
2017-Sep-11 06:30N 42°22' W 070°39'714.1
2017-Sep-11 06:00N 42°21' W 070°29'713.1
2017-Sep-11 05:30N 42°21' W 070°20'612.7
2017-Sep-11 05:00N 42°21' W 070°12'612.7
2017-Sep-11 04:30N 42°20' W 070°03'713.6
2017-Sep-11 04:01N 42°15' W 069°57'713.9
2017-Sep-11 03:31N 42°09' W 069°53'714.2
2017-Sep-11 03:00N 42°03' W 069°49'714.4
2017-Sep-11 02:30N 41°56' W 069°44'714.5
2017-Sep-11 02:00N 41°50' W 069°40'815.8
2017-Sep-11 01:30N 41°42' W 069°35'815.6
2017-Sep-11 01:00N 41°36' W 069°30'815.3
2017-Sep-11 00:30N 41°29' W 069°25'714.9
2017-Sep-11 00:00N 41°22' W 069°21'20712.1
2017-Sep-10 06:56N 40°25' W 073°44'613.3
2017-Sep-10 06:30N 40°28' W 073°51'816.8
2017-Sep-10 06:01N 40°32' W 074°01'713.3
2017-Sep-10 05:30N 40°38' W 074°03'3 6.8
2017-Sep-10 05:00N 40°39' W 074°08'2 3.2
2017-Sep-10 04:31N 40°40' W 074°08'0 0.3
2017-Sep-10 04:00N 40°40' W 074°09'0 0.1
2017-Sep-10 03:30N 40°40' W 074°09'0 0.0
2017-Sep-10 03:00N 40°40' W 074°09'0 0.0
2017-Sep-10 02:30N 40°40' W 074°09'0 0.0
2017-Sep-10 02:00N 40°40' W 074°09'0 0.0
2017-Sep-10 01:30N 40°40' W 074°09'0 0.1
2017-Sep-10 01:00N 40°40' W 074°09'0 0.0
2017-Sep-10 00:30N 40°40' W 074°09'0 0.0
2017-Sep-10 00:00N 40°40' W 074°09'0 0.0
2017-Sep-09 23:30N 40°40' W 074°09'0 0.0
2017-Sep-09 23:00N 40°40' W 074°09'0 0.0
2017-Sep-09 22:30N 40°40' W 074°09'0 0.0
2017-Sep-09 22:00N 40°40' W 074°09'0 0.0
2017-Sep-09 21:30N 40°40' W 074°09'0 0.0
2017-Sep-09 21:00N 40°40' W 074°09'0 0.0
2017-Sep-09 20:27N 40°40' W 074°09'0 0.0
2017-Sep-09 20:00N 40°40' W 074°09'0 0.0
2017-Sep-09 19:30N 40°40' W 074°09'0 0.0
2017-Sep-09 19:00N 40°40' W 074°09'0 0.0
2017-Sep-09 18:30N 40°40' W 074°09'0 0.0
2017-Sep-09 18:00N 40°40' W 074°09'0 0.0
2017-Sep-09 17:30N 40°40' W 074°09'  

Dump ship's entire track history